Pagrindinis puslapis
METAR-TAF:

METAR-TAF

Oro uostai :

Colmenar Viejo, Ispanija

platuma: 40-39N, ilguma: 003-44W, Aukštis: -999 m

Dabartinis oras

Ataskaita buvo paskelbta 21 minutes, ne 15:00 UTC
Vėjas 9 kt iš Vakarų/Šiaurės Vakarų
Temperatūra 16°C
Drėgmė 36%
Slėgis 1007 hPa
Matomumas 10 km arba daugiau
Išsisklaidę debesys ne aukštis 6000 ft

METAR: LECV 251500Z 30009KT 9999 SCT060 16/01 Q1007

Laikas: 17:21 (15:21 UTC)

Prognozė

Ataskaita buvo paskelbta 4 valandos ir 21 minutes, ne 11:00 UTC
Prognozė galioja nuo 25 metu 12 UTC su 26 metu 12 UTC
Vėjas 3 kt nuo kintamojo kryptimis
Matomumas 10 km arba daugiau
nėra debesų žemiau 1500 m ir nėra kamuolinių lietaus debesų
Laikinai
nuo 25 metu 12 UTC su 25 metu 19 UTC
Vėjas 10 kt iš Šiaurės Vakarų
Tapsmas
nuo 26 metu 10 UTC su 26 metu 12 UTC
Vėjas 10 kt iš Pietų/Pietvakarių

TAF: LECV 251100Z 2512/2612 VRB03KT CAVOK TX16/2515Z TN06/2606Z TEMPO 2512/2519 31010KT BECMG 2610/2612 20010KT

Orai ataskaitas ir orų prognozės (METAR, TAF).

turimą stotys yra geltonos ir raudonos taškus žemėlapyje.

Perkelti pele per norėdami pamatyti stoties vardą.

Tada spustelėkite, norėdami matyti oro stebėjimo ir prognozės.

Norėdami pakeisti žemėlapį: spustelėkite ant žalios mygtukų su juodo kryžiaus žemyn,; žalią mygtuką su brūkšneliu, jei norite nutolinti; arba žalių rodyklių gretimoms žemėlapius.


METAR-TAF: